createdAt,value
2022-09-14T00:02:24.682Z,991.22
2022-09-14T00:08:08.578Z,991.22
2022-09-14T00:13:52.730Z,991.17
2022-09-14T00:19:36.163Z,991.13
2022-09-14T00:25:19.515Z,991.1
2022-09-14T00:31:03.893Z,991.04
2022-09-14T00:36:47.882Z,991.05
2022-09-14T00:42:31.249Z,990.98
2022-09-14T00:48:14.686Z,990.87
2022-09-14T00:53:58.076Z,990.87
2022-09-14T00:59:42.498Z,990.88
2022-09-14T01:05:30.769Z,990.8
2022-09-14T01:11:22.459Z,990.71
2022-09-14T01:17:08.027Z,990.69
2022-09-14T01:22:53.931Z,990.63
2022-09-14T01:28:41.410Z,990.61
2022-09-14T01:34:27.675Z,990.59
2022-09-14T01:40:16.216Z,990.56
2022-09-14T01:46:01.938Z,990.55
2022-09-14T01:51:47.010Z,990.51
2022-09-14T01:57:32.964Z,990.44
2022-09-14T02:03:19.645Z,990.38
2022-09-14T02:09:04.359Z,990.37
2022-09-14T02:14:47.762Z,990.3
2022-09-14T02:20:33.918Z,990.32
2022-09-14T02:26:18.115Z,990.31
2022-09-14T02:32:06.127Z,990.28
2022-09-14T02:37:52.980Z,990.17
2022-09-14T02:43:41.720Z,990.19
2022-09-14T02:49:28.170Z,990.01
2022-09-14T02:55:13.602Z,989.98
2022-09-14T03:00:56.835Z,989.89
2022-09-14T03:06:40.231Z,989.93
2022-09-14T03:12:23.582Z,989.97
2022-09-14T03:18:09.176Z,989.89
2022-09-14T03:23:56.956Z,989.69
2022-09-14T03:29:40.447Z,989.81
2022-09-14T03:35:23.738Z,989.86
2022-09-14T03:41:11.349Z,989.91
2022-09-14T03:46:54.667Z,990
2022-09-14T03:52:38.615Z,989.94
2022-09-14T03:58:21.660Z,989.9
2022-09-14T04:04:05.106Z,989.94
2022-09-14T04:09:48.603Z,990.01
2022-09-14T04:15:31.777Z,989.79
2022-09-14T04:21:16.237Z,989.62
2022-09-14T04:26:59.604Z,989.59
2022-09-14T04:32:42.763Z,989.52
2022-09-14T04:38:26.182Z,989.24
2022-09-14T04:44:09.322Z,989.14
2022-09-14T04:49:53.509Z,989.21
2022-09-14T04:55:36.986Z,989.22
2022-09-14T05:01:21.508Z,989.2
2022-09-14T05:07:04.988Z,989.18
2022-09-14T05:12:48.056Z,989.09
2022-09-14T05:18:31.479Z,989.05
2022-09-14T05:24:16.326Z,989.11
2022-09-14T05:29:59.678Z,989.01
2022-09-14T05:35:43.002Z,988.96
2022-09-14T05:41:26.137Z,988.95
2022-09-14T05:47:09.327Z,988.91
2022-09-14T05:52:52.475Z,989.04
2022-09-14T05:58:36.027Z,989.2
2022-09-14T06:04:19.562Z,989.24
2022-09-14T06:10:02.816Z,989.03
2022-09-14T06:15:46.015Z,989.09
2022-09-14T06:21:30.190Z,989.27
2022-09-14T06:27:13.527Z,989.53
2022-09-14T06:32:58.067Z,989.44
2022-09-14T06:38:41.697Z,989.45
2022-09-14T06:44:25.186Z,989.27
2022-09-14T06:50:10.000Z,989.4
2022-09-14T06:55:53.523Z,989.37
2022-09-14T07:01:37.195Z,989.47
2022-09-14T07:07:20.367Z,989.39
2022-09-14T07:13:03.594Z,989.2
2022-09-14T07:18:46.823Z,989.23
2022-09-14T07:24:30.119Z,989.42
2022-09-14T07:30:13.862Z,989.41
2022-09-14T07:36:01.950Z,989.38
2022-09-14T07:41:45.560Z,989.45
2022-09-14T07:47:35.129Z,989.52
2022-09-14T07:53:18.318Z,988.85
2022-09-14T07:59:31.199Z,989.06
2022-09-14T08:05:05.305Z,988.99
2022-09-14T08:10:48.442Z,988.74
2022-09-14T08:16:33.030Z,988.79
2022-09-14T08:22:16.851Z,988.99
2022-09-14T08:28:00.106Z,988.98
2022-09-14T08:33:45.874Z,988.98
2022-09-14T08:39:29.128Z,988.98
2022-09-14T08:45:14.336Z,989.01
2022-09-14T08:50:57.519Z,989.17
2022-09-14T08:56:43.645Z,989.25
2022-09-14T09:02:43.142Z,989.31
2022-09-14T09:08:31.561Z,989.39
2022-09-14T09:14:19.762Z,989.38
2022-09-14T09:20:07.138Z,989.34
2022-09-14T09:25:58.298Z,989.36
2022-09-14T09:31:44.120Z,989.3
2022-09-14T09:37:27.698Z,989.3
2022-09-14T09:43:12.853Z,989.27
2022-09-14T09:49:11.419Z,989.19
2022-09-14T09:54:56.363Z,989.07
2022-09-14T10:00:39.652Z,989.17
2022-09-14T10:06:23.059Z,989.13
2022-09-14T10:12:06.404Z,989.11
2022-09-14T10:18:03.114Z,989.11
2022-09-14T10:23:46.342Z,989.09
2022-09-14T10:29:35.274Z,989.05
2022-09-14T10:35:19.444Z,989.02
2022-09-14T10:41:08.813Z,988.82
2022-09-14T10:46:59.322Z,988.8
2022-09-14T10:52:51.142Z,988.72
2022-09-14T10:58:40.797Z,988.65
2022-09-14T11:04:31.436Z,988.63
2022-09-14T11:10:20.418Z,988.61
2022-09-14T11:16:07.678Z,988.64
2022-09-14T11:21:55.731Z,988.77
2022-09-14T11:27:42.724Z,988.95
2022-09-14T11:33:32.095Z,989.02
2022-09-14T11:39:18.841Z,989.01
2022-09-14T11:45:04.314Z,989.11
2022-09-14T11:50:49.866Z,989.12
2022-09-14T11:56:34.175Z,989.02
2022-09-14T12:02:29.366Z,988.99
2022-09-14T12:08:37.016Z,989.03
2022-09-14T12:14:28.598Z,989.08
2022-09-14T12:20:36.063Z,989.01
2022-09-14T12:26:36.869Z,989.03
2022-09-14T12:32:33.580Z,989
2022-09-14T12:38:28.586Z,989.01
2022-09-14T12:44:23.614Z,988.85
2022-09-14T12:50:10.802Z,988.84
2022-09-14T12:55:57.409Z,988.91
2022-09-14T13:01:45.234Z,988.95
2022-09-14T13:07:30.815Z,988.91
2022-09-14T13:13:18.155Z,988.93
2022-09-14T13:19:08.033Z,988.88
2022-09-14T13:24:56.317Z,988.83
2022-09-14T13:30:40.593Z,988.64
2022-09-14T13:36:25.819Z,988.31
2022-09-14T13:42:10.016Z,988.38
2022-09-14T13:47:54.098Z,988.53
2022-09-14T13:53:42.976Z,988.53
2022-09-14T13:59:26.529Z,988.55
2022-09-14T14:05:20.688Z,988.5
2022-09-14T14:11:05.751Z,988.51
2022-09-14T14:17:00.273Z,988.38
2022-09-14T14:22:49.108Z,988.36
2022-09-14T14:28:32.423Z,988.37
2022-09-14T14:34:17.935Z,988.24
2022-09-14T14:40:01.302Z,988.18
2022-09-14T14:45:46.274Z,988.26
2022-09-14T14:51:29.748Z,988.24
2022-09-14T14:57:13.152Z,988.37
2022-09-14T15:02:56.654Z,988.46
2022-09-14T15:08:39.943Z,988.47
2022-09-14T15:14:27.957Z,988.47
2022-09-14T15:20:12.118Z,988.4
2022-09-14T15:25:55.566Z,988.42
2022-09-14T15:31:39.433Z,988.5
2022-09-14T15:37:22.981Z,988.51
2022-09-14T15:43:05.990Z,988.55
2022-09-14T15:48:49.378Z,988.57
2022-09-14T15:54:35.483Z,988.72
2022-09-14T16:00:19.343Z,988.7
2022-09-14T16:06:06.407Z,988.58
2022-09-14T16:11:50.487Z,988.53
2022-09-14T16:17:34.883Z,988.58
2022-09-14T16:23:17.666Z,988.57
2022-09-14T16:29:00.883Z,988.54
2022-09-14T16:34:44.249Z,988.61
2022-09-14T16:40:29.068Z,988.65
2022-09-14T16:46:13.584Z,988.72
2022-09-14T16:51:57.507Z,988.79
2022-09-14T16:57:40.817Z,988.78
2022-09-14T17:03:24.743Z,988.87
2022-09-14T17:09:16.278Z,988.87
2022-09-14T17:15:04.662Z,988.83
2022-09-14T17:20:57.864Z,988.91
2022-09-14T17:26:42.030Z,988.87
2022-09-14T17:32:26.199Z,988.87
2022-09-14T17:38:23.037Z,988.95
2022-09-14T17:44:11.616Z,988.99
2022-09-14T17:50:00.703Z,988.99
2022-09-14T17:55:44.784Z,989.09
2022-09-14T18:01:32.040Z,989.21
2022-09-14T18:07:18.116Z,989.26
2022-09-14T18:13:02.202Z,989.27
2022-09-14T18:18:46.194Z,989.37
2022-09-14T18:24:29.994Z,989.43
2022-09-14T18:30:14.238Z,989.63
2022-09-14T18:35:57.940Z,989.76
2022-09-14T18:41:41.096Z,989.86
2022-09-14T18:47:24.624Z,989.81
2022-09-14T18:53:07.870Z,989.83
2022-09-14T18:58:51.076Z,989.86
2022-09-14T19:04:34.062Z,989.9
2022-09-14T19:10:17.573Z,989.92
2022-09-14T19:16:04.999Z,989.98
2022-09-14T19:21:49.686Z,990.05
2022-09-14T19:27:32.954Z,990.2
2022-09-14T19:33:17.283Z,990.29
2022-09-14T19:39:00.600Z,990.28
2022-09-14T19:44:43.897Z,990.32
2022-09-14T19:50:27.315Z,990.37
2022-09-14T19:56:12.771Z,990.36
2022-09-14T20:01:56.365Z,990.41
2022-09-14T20:07:40.171Z,990.39
2022-09-14T20:13:23.699Z,990.41
2022-09-14T20:19:08.795Z,990.5
2022-09-14T20:24:59.424Z,990.52
2022-09-14T20:30:51.262Z,990.55
2022-09-14T20:36:35.153Z,990.48
2022-09-14T20:42:18.783Z,990.55
2022-09-14T20:48:02.394Z,990.68
2022-09-14T20:53:45.855Z,990.72
2022-09-14T20:59:29.166Z,990.75
2022-09-14T21:05:12.822Z,990.81
2022-09-14T21:10:56.511Z,990.88
2022-09-14T21:16:41.364Z,990.95
2022-09-14T21:22:24.907Z,991.01
2022-09-14T21:28:08.301Z,991.02
2022-09-14T21:33:52.759Z,991.02
2022-09-14T21:39:36.363Z,991.08
2022-09-14T21:45:19.819Z,991.08
2022-09-14T21:51:15.281Z,991.09
2022-09-14T21:56:58.679Z,991.16
2022-09-14T22:02:42.006Z,991.22
2022-09-14T22:08:26.788Z,991.31
2022-09-14T22:14:11.518Z,991.25
2022-09-14T22:19:54.658Z,991.3
2022-09-14T22:25:38.854Z,991.42
2022-09-14T22:31:22.944Z,991.45
2022-09-14T22:37:06.555Z,991.42
2022-09-14T22:42:49.711Z,991.51
2022-09-14T22:48:33.444Z,991.51
2022-09-14T22:54:16.670Z,991.6
2022-09-14T23:00:00.201Z,991.67
2022-09-14T23:05:48.362Z,991.71
2022-09-14T23:11:32.045Z,991.8
2022-09-14T23:17:15.542Z,991.77
2022-09-14T23:22:58.887Z,991.79
2022-09-14T23:28:42.164Z,991.72
2022-09-14T23:34:26.003Z,991.75
2022-09-14T23:40:09.962Z,991.82
2022-09-14T23:45:53.650Z,991.86
2022-09-14T23:51:37.040Z,991.89
2022-09-14T23:57:20.378Z,991.95
